Time;durP1;ratioP1;P1;durP2;ratioP2;P2;SDS_P1;SDS_P2;PMS_P1;PMS_P2;Temp;Humidity;BMP_temperature;BMP_pressure;BME280_temperature;BME280_humidity;BME280_pressure;Samples;Min_cycle;Max_cycle;Signal;HPM_P1;HPM_P2
2022/01/04 00:01:49;;;;;;;23.20;4.38;;;;;;;7.20;96.84;99594.66;4957470;28;20402;-81
2022/01/04 00:04:15;;;;;;;17.95;4.03;;;;;;;7.19;96.90;99598.22;4954804;29;20170;-80
2022/01/04 00:06:41;;;;;;;19.92;4.43;;;;;;;7.16;96.73;99587.72;4956430;29;20182;-81
2022/01/04 00:09:07;;;;;;;23.98;3.75;;;;;;;7.16;96.80;99601.91;4955788;29;20175;-81
2022/01/04 00:11:57;;;;;;;17.65;3.60;;;;;;;7.18;96.78;99588.53;4957783;28;20194;-80
2022/01/04 00:14:22;;;;;;;18.77;3.85;;;;;;;7.14;97.17;99578.94;4958095;29;20202;-80
2022/01/04 00:16:50;;;;;;;19.38;3.63;;;;;;;7.15;97.13;99591.31;4954659;29;20167;-80
2022/01/04 00:19:17;;;;;;;21.17;3.97;;;;;;;7.15;97.28;99576.22;4956408;28;20167;-81
2022/01/04 00:21:42;;;;;;;20.10;3.95;;;;;;;7.12;97.81;99572.81;4954834;29;20257;-80
2022/01/04 00:24:08;;;;;;;26.85;4.15;;;;;;;7.06;97.93;99573.06;4954953;29;20195;-80
2022/01/04 00:26:33;;;;;;;15.85;3.50;;;;;;;7.12;98.40;99575.47;4954189;29;20210;-80
2022/01/04 00:28:59;;;;;;;23.10;3.80;;;;;;;7.05;98.43;99568.69;4957358;29;20181;-80
2022/01/04 00:31:24;;;;;;;22.20;4.07;;;;;;;6.99;98.86;99567.16;4957795;28;20194;-81
2022/01/04 00:33:50;;;;;;;29.20;4.30;;;;;;;7.05;98.61;99553.56;4955650;28;20178;-81
2022/01/04 00:36:16;;;;;;;23.80;4.18;;;;;;;6.99;99.28;99560.03;4954610;29;20181;-80
2022/01/04 00:38:41;;;;;;;20.63;4.18;;;;;;;7.01;99.16;99571.47;4955398;28;20179;-80
2022/01/04 00:41:07;;;;;;;25.00;3.85;;;;;;;7.00;99.12;99555.59;4954714;29;20211;-81
2022/01/04 00:43:33;;;;;;;21.42;3.95;;;;;;;6.99;99.50;99565.34;4954566;29;20326;-81
2022/01/04 00:45:59;;;;;;;19.75;3.40;;;;;;;7.00;99.37;99561.78;4953121;29;20238;-80
2022/01/04 00:50:51;;;;;;;22.38;4.63;;;;;;;7.05;99.20;99552.72;4954648;28;20190;-80
2022/01/04 00:53:17;;;;;;;20.65;4.53;;;;;;;7.13;98.82;99539.94;4954510;29;20199;-80
2022/01/04 00:55:42;;;;;;;34.22;5.18;;;;;;;7.06;99.10;99546.44;4954700;28;20190;-80
2022/01/04 00:58:07;;;;;;;17.65;3.65;;;;;;;7.08;98.63;99528.59;4953854;29;20656;-80
2022/01/04 01:00:33;;;;;;;17.30;3.30;;;;;;;7.18;98.65;99524.59;4957129;28;20171;-80
2022/01/04 01:02:58;;;;;;;21.23;4.13;;;;;;;7.09;98.45;99528.53;4957451;29;20341;-80
2022/01/04 01:05:26;;;;;;;13.90;3.63;;;;;;;7.09;98.42;99515.22;4961829;29;20191;-79
2022/01/04 01:07:52;;;;;;;21.65;3.92;;;;;;;7.06;98.68;99525.13;4961552;29;20206;-80
2022/01/04 01:12:43;;;;;;;19.80;4.03;;;;;;;7.02;99.33;99508.44;4990039;28;20285;-80
2022/01/04 01:15:09;;;;;;;18.67;3.70;;;;;;;6.87;100.00;99504.66;4994495;28;20217;-80
2022/01/04 01:17:35;;;;;;;21.52;4.45;;;;;;;6.91;100.00;99513.38;4964366;29;20170;-80
2022/01/04 01:20:04;;;;;;;22.27;3.50;;;;;;;6.87;100.00;99515.31;4965416;28;20204;-79
2022/01/04 01:22:29;;;;;;;29.65;5.57;;;;;;;6.83;100.00;99516.38;4965464;29;20290;-79
2022/01/04 01:24:55;;;;;;;23.63;3.30;;;;;;;6.86;100.00;99500.25;4961715;28;20222;-81
2022/01/04 01:27:20;;;;;;;21.60;4.30;;;;;;;6.76;100.00;99499.81;4957611;29;20620;-81
2022/01/04 01:29:46;;;;;;;23.48;4.13;;;;;;;6.74;100.00;99490.16;4943393;29;20170;-80
2022/01/04 01:32:11;;;;;;;26.75;4.78;;;;;;;6.77;100.00;99493.53;4962544;28;20202;-81
2022/01/04 01:34:37;;;;;;;19.00;4.13;;;;;;;6.71;100.00;99500.94;4962509;28;20174;-79
2022/01/04 01:37:02;;;;;;;20.10;3.80;;;;;;;6.72;100.00;99490.22;4964342;29;20170;-80
2022/01/04 01:39:28;;;;;;;22.42;4.22;;;;;;;6.74;100.00;99490.16;4964632;29;20193;-79
2022/01/04 01:41:53;;;;;;;20.60;4.13;;;;;;;6.86;100.00;99492.28;4964255;28;20206;-79
2022/01/04 01:44:20;;;;;;;21.65;4.40;;;;;;;6.85;100.00;99479.06;4994094;28;20170;-79
2022/01/04 01:46:45;;;;;;;18.02;3.75;;;;;;;6.80;100.00;99482.78;4961254;28;20181;-80
2022/01/04 01:49:11;;;;;;;17.10;3.97;;;;;;;6.78;100.00;99481.13;4961306;28;20254;-80
2022/01/04 01:51:36;;;;;;;19.58;4.47;;;;;;;6.81;100.00;99471.19;4961048;28;20297;-80
2022/01/04 01:54:02;;;;;;;24.60;5.65;;;;;;;6.82;100.00;99477.38;4977297;28;20163;-79
2022/01/04 01:56:29;;;;;;;19.30;3.97;;;;;;;6.78;100.00;99471.34;4977282;28;20277;-80
2022/01/04 01:58:55;;;;;;;17.80;4.03;;;;;;;6.93;100.00;99468.91;4961457;29;20241;-79
2022/01/04 02:01:21;;;;;;;17.77;4.05;;;;;;;6.85;100.00;99476.38;4961356;28;20202;-81
2022/01/04 02:03:47;;;;;;;21.13;3.83;;;;;;;6.94;100.00;99458.19;4956566;29;20202;-81
2022/01/04 02:06:12;;;;;;;16.17;3.67;;;;;;;6.87;100.00;99446.09;4957144;28;20170;-80
2022/01/04 02:08:38;;;;;;;20.17;3.95;;;;;;;6.91;100.00;99442.38;4958247;28;20189;-81
2022/01/04 02:11:04;;;;;;;20.20;3.92;;;;;;;6.89;100.00;99438.91;4957615;28;20214;-81
2022/01/04 02:13:30;;;;;;;18.92;3.95;;;;;;;6.86;100.00;99444.34;4939674;29;20221;-81
2022/01/04 02:15:55;;;;;;;24.92;4.50;;;;;;;6.88;100.00;99450.47;4955800;29;20183;-81
2022/01/04 02:18:21;;;;;;;19.08;4.90;;;;;;;6.88;100.00;99444.28;4952361;28;20178;-81
2022/01/04 02:20:46;;;;;;;21.00;4.05;;;;;;;6.93;100.00;99461.78;4945017;28;20207;-81
2022/01/04 02:23:12;;;;;;;19.17;4.00;;;;;;;6.89;100.00;99446.03;4970504;28;20264;-81
2022/01/04 02:25:37;;;;;;;24.33;3.88;;;;;;;6.84;100.00;99440.88;4977013;28;20186;-82
2022/01/04 02:28:03;;;;;;;17.23;3.80;;;;;;;6.86;100.00;99431.03;4976156;28;20778;-81
2022/01/04 02:30:29;;;;;;;18.25;4.18;;;;;;;6.97;100.00;99438.53;4976532;28;20178;-81
2022/01/04 02:32:54;;;;;;;22.98;4.63;;;;;;;6.92;100.00;99428.09;4976278;28;20570;-81
2022/01/04 02:35:24;;;;;;;21.27;4.20;;;;;;;6.95;100.00;99445.72;4976488;28;20533;-81
2022/01/04 02:37:54;;;;;;;20.13;4.10;;;;;;;6.95;100.00;99430.66;4975644;28;20174;-81
2022/01/04 02:40:19;;;;;;;26.23;4.18;;;;;;;6.89;100.00;99430.06;4977045;28;20174;-81
2022/01/04 02:42:44;;;;;;;18.95;4.53;;;;;;;6.88;100.00;99430.97;4975010;28;20218;-81
2022/01/04 02:45:10;;;;;;;22.80;4.63;;;;;;;6.91;100.00;99444.13;4977225;28;20175;-81
2022/01/04 02:47:36;;;;;;;22.20;3.55;;;;;;;6.88;100.00;99434.50;4975055;28;20174;-81
2022/01/04 02:50:03;;;;;;;22.60;4.05;;;;;;;6.88;100.00;99433.63;4975566;28;20186;-81
2022/01/04 02:52:29;;;;;;;18.73;3.90;;;;;;;6.84;100.00;99424.06;4975018;28;20288;-81
2022/01/04 02:54:54;;;;;;;21.55;3.47;;;;;;;6.78;100.00;99418.09;4959452;28;20284;-81
2022/01/04 02:57:20;;;;;;;25.08;4.03;;;;;;;6.85;100.00;99420.47;4982804;28;20169;-80
2022/01/04 02:59:45;;;;;;;23.52;4.18;;;;;;;6.87;100.00;99421.28;4972318;28;20194;-79
2022/01/04 03:02:11;;;;;;;20.48;3.65;;;;;;;6.84;100.00;99422.25;4936077;29;20194;-78
2022/01/04 03:04:36;;;;;;;22.65;3.72;;;;;;;6.87;100.00;99416.81;4952359;29;20187;-78
2022/01/04 03:07:03;;;;;;;17.65;4.55;;;;;;;6.90;100.00;99415.81;4935539;29;20222;-78
2022/01/04 03:09:29;;;;;;;23.13;4.05;;;;;;;6.88;100.00;99407.88;4953020;28;20262;-78
2022/01/04 03:11:56;;;;;;;21.80;4.80;;;;;;;6.87;100.00;99406.16;4953450;28;20277;-78
2022/01/04 03:14:22;;;;;;;26.02;4.10;;;;;;;6.78;100.00;99390.63;4953260;28;20174;-78
2022/01/04 03:16:47;;;;;;;22.40;4.40;;;;;;;6.77;100.00;99397.72;4952931;28;20171;-78
2022/01/04 03:19:13;;;;;;;22.20;4.97;;;;;;;6.71;100.00;99399.78;4951820;29;20612;-78
2022/01/04 03:21:43;;;;;;;21.48;4.07;;;;;;;6.72;100.00;99385.56;4951850;29;20191;-78
2022/01/04 03:24:12;;;;;;;17.15;4.05;;;;;;;6.76;100.00;99382.69;4951429;28;20209;-78
2022/01/04 03:26:38;;;;;;;16.27;3.75;;;;;;;6.72;100.00;99378.44;4951157;29;20534;-78
2022/01/04 03:29:06;;;;;;;20.05;3.72;;;;;;;6.70;100.00;99376.78;4953247;28;20170;-78
2022/01/04 03:31:32;;;;;;;21.15;5.05;;;;;;;6.71;100.00;99365.19;4935830;29;20202;-78
2022/01/04 03:33:58;;;;;;;18.08;3.38;;;;;;;6.75;100.00;99378.28;4953307;28;20229;-78
2022/01/04 03:36:24;;;;;;;19.10;3.85;;;;;;;6.76;100.00;99368.53;4951055;29;20187;-78
2022/01/04 03:38:51;;;;;;;19.52;3.97;;;;;;;6.74;100.00;99362.41;4951951;29;20233;-78
2022/01/04 03:41:18;;;;;;;25.52;4.32;;;;;;;6.76;100.00;99358.75;4952864;28;20183;-78
2022/01/04 03:43:43;;;;;;;23.42;3.92;;;;;;;6.71;100.00;99349.22;4953942;28;20203;-79
2022/01/04 03:46:09;;;;;;;21.35;4.18;;;;;;;6.72;100.00;99359.81;4956849;28;20167;-79
2022/01/04 03:48:36;;;;;;;24.40;4.47;;;;;;;6.73;100.00;99355.34;4956875;28;20189;-79
2022/01/04 03:51:03;;;;;;;18.33;3.72;;;;;;;6.73;100.00;99345.56;4956841;28;20210;-79
2022/01/04 03:53:29;;;;;;;29.83;4.75;;;;;;;6.75;100.00;99338.34;4956504;28;20173;-79
2022/01/04 03:55:54;;;;;;;21.00;4.18;;;;;;;6.75;100.00;99341.03;4938964;29;20257;-78
2022/01/04 03:58:20;;;;;;;17.08;3.90;;;;;;;6.72;100.00;99337.66;4956704;28;20187;-79
2022/01/04 04:00:45;;;;;;;23.60;4.15;;;;;;;6.68;100.00;99330.75;4955249;28;20557;-79
2022/01/04 04:03:11;;;;;;;19.67;3.63;;;;;;;6.66;100.00;99324.63;4956949;28;20637;-78
2022/01/04 04:05:36;;;;;;;17.70;4.00;;;;;;;6.67;100.00;99326.34;4955568;28;20205;-77
2022/01/04 04:08:02;;;;;;;19.55;4.72;;;;;;;6.72;100.00;99311.91;4954381;28;20269;-82
2022/01/04 04:10:27;;;;;;;25.38;4.32;;;;;;;6.69;100.00;99317.38;4987089;28;20186;-79
2022/01/04 04:12:53;;;;;;;16.55;3.65;;;;;;;6.64;100.00;99302.53;4955703;28;20179;-79
2022/01/04 04:15:18;;;;;;;19.77;4.07;;;;;;;6.63;100.00;99311.47;4954440;29;20183;-79
2022/01/04 04:17:47;;;;;;;14.60;4.22;;;;;;;6.58;100.00;99309.88;4954782;28;20194;-79
2022/01/04 04:20:13;;;;;;;25.73;4.15;;;;;;;6.58;100.00;99309.00;4951800;28;20196;-79
2022/01/04 04:22:39;;;;;;;18.33;3.70;;;;;;;6.59;100.00;99294.78;4966508;28;20233;-79
2022/01/04 04:25:05;;;;;;;16.95;3.60;;;;;;;6.62;100.00;99291.97;4968404;28;20185;-79
2022/01/04 04:27:31;;;;;;;25.17;4.53;;;;;;;6.65;100.00;99288.28;4957896;28;20198;-79
2022/01/04 04:29:56;;;;;;;25.00;3.92;;;;;;;6.65;99.98;99285.63;4940664;28;20191;-79
2022/01/04 04:32:22;;;;;;;23.35;4.40;;;;;;;6.65;100.00;99298.94;4951703;28;20254;-79
2022/01/04 04:34:47;;;;;;;18.98;3.50;;;;;;;6.61;99.96;99292.91;4937578;29;20195;-79
2022/01/04 04:37:13;;;;;;;19.58;3.10;;;;;;;6.68;100.00;99289.03;4923577;29;20629;-79
2022/01/04 04:39:39;;;;;;;24.95;3.90;;;;;;;6.66;100.00;99296.22;4940813;29;20187;-80
2022/01/04 04:42:04;;;;;;;25.90;4.75;;;;;;;6.67;99.52;99278.44;4941026;29;20191;-79
2022/01/04 04:44:30;;;;;;;16.35;3.67;;;;;;;6.71;99.79;99280.03;4941513;29;20342;-79
2022/01/04 04:46:56;;;;;;;26.52;4.32;;;;;;;6.70;99.71;99273.00;4939493;29;20187;-80
2022/01/04 04:49:21;;;;;;;27.05;4.63;;;;;;;6.65;99.76;99269.66;4939586;29;20553;-80
2022/01/04 04:51:47;;;;;;;19.98;4.00;;;;;;;6.64;100.00;99271.47;4940968;29;20199;-80
2022/01/04 04:54:13;;;;;;;24.17;4.05;;;;;;;6.63;100.00;99269.75;4940645;29;20243;-79
2022/01/04 04:56:38;;;;;;;15.95;3.53;;;;;;;6.62;100.00;99265.34;4955015;29;20183;-79
2022/01/04 04:59:08;;;;;;;21.83;4.35;;;;;;;6.65;100.00;99257.25;4955119;29;20827;-80
2022/01/04 05:01:34;;;;;;;20.92;3.90;;;;;;;6.63;100.00;99261.78;4956870;28;20257;-79
2022/01/04 05:04:00;;;;;;;17.85;4.03;;;;;;;6.60;99.86;99256.56;4959144;28;20199;-79
2022/01/04 05:06:26;;;;;;;16.65;4.07;;;;;;;6.58;100.00;99246.03;4958819;28;20167;-79
2022/01/04 05:08:52;;;;;;;24.95;5.20;;;;;;;6.59;100.00;99238.91;4959369;28;20542;-80
2022/01/04 05:11:17;;;;;;;19.30;3.85;;;;;;;6.60;100.00;99235.28;4958946;28;20692;-79
2022/01/04 05:13:43;;;;;;;21.60;4.63;;;;;;;6.65;100.00;99229.75;4957177;29;20225;-80
2022/01/04 05:16:08;;;;;;;19.20;4.32;;;;;;;6.58;100.00;99226.50;4958166;28;20256;-79
2022/01/04 05:18:33;;;;;;;19.33;4.30;;;;;;;6.57;100.00;99228.31;4958844;28;20229;-79
2022/01/04 05:20:59;;;;;;;16.73;4.20;;;;;;;6.49;100.00;99225.16;4958933;28;20212;-79
2022/01/04 05:23:24;;;;;;;18.70;4.97;;;;;;;6.56;100.00;99218.63;4941057;29;20365;-79
2022/01/04 05:25:50;;;;;;;19.67;4.53;;;;;;;6.59;100.00;99215.81;4957479;29;20175;-79
2022/01/04 05:28:15;;;;;;;19.20;4.50;;;;;;;6.53;100.00;99215.25;4958240;28;20656;-79
2022/01/04 05:30:40;;;;;;;17.40;3.80;;;;;;;6.49;100.00;99218.97;4957140;28;20197;-79
2022/01/04 05:33:06;;;;;;;17.50;4.32;;;;;;;6.47;100.00;99211.09;4958112;28;20203;-79
2022/01/04 05:35:31;;;;;;;20.13;4.65;;;;;;;6.45;100.00;99194.34;4956071;29;20179;-79
2022/01/04 05:37:57;;;;;;;17.05;4.60;;;;;;;6.46;100.00;99198.72;4957201;29;20167;-79
2022/01/04 05:40:22;;;;;;;23.77;4.57;;;;;;;6.42;100.00;99196.28;4958126;28;20194;-79
2022/01/04 05:42:47;;;;;;;22.13;4.80;;;;;;;6.40;100.00;99199.00;4957816;28;20201;-79
2022/01/04 05:45:13;;;;;;;19.63;4.53;;;;;;;6.34;100.00;99201.94;4956108;29;20182;-79
2022/01/04 05:47:38;;;;;;;26.10;5.32;;;;;;;6.34;100.00;99193.97;4957395;28;20250;-79
2022/01/04 05:50:08;;;;;;;22.48;5.50;;;;;;;6.38;100.00;99198.19;4958102;28;20178;-79
2022/01/04 05:52:33;;;;;;;18.80;4.68;;;;;;;6.41;100.00;99190.09;4957838;28;20202;-79
2022/01/04 05:54:59;;;;;;;17.08;5.05;;;;;;;6.40;100.00;99196.34;4957856;28;20175;-78
2022/01/04 05:57:24;;;;;;;21.88;5.95;;;;;;;6.47;100.00;99200.44;4955537;29;20686;-79
2022/01/04 05:59:50;;;;;;;29.15;6.22;;;;;;;6.44;100.00;99205.91;4957063;28;20186;-79
2022/01/04 06:02:15;;;;;;;26.70;5.75;;;;;;;6.46;100.00;99198.72;4957059;28;20586;-79
2022/01/04 06:04:41;;;;;;;20.17;4.38;;;;;;;6.50;100.00;99204.75;4972509;28;20175;-79
2022/01/04 06:07:07;;;;;;;22.75;5.10;;;;;;;6.55;100.00;99208.91;4956843;28;20217;-80
2022/01/04 06:09:41;;;;;;;16.67;4.47;;;;;;;6.52;100.00;99210.88;4956231;28;20198;-80
2022/01/04 06:14:50;;;;;;;24.15;6.00;;;;;;;6.52;100.00;99205.53;4937196;28;20186;-80
2022/01/04 06:14:54;;;;;;;16.67;5.57;;;;;;;6.50;100.00;99210.94;4955952;28;20189;-79
2022/01/04 06:17:26;;;;;;;22.25;5.15;;;;;;;6.52;100.00;99195.75;4955190;28;20226;-79
2022/01/04 06:19:51;;;;;;;18.88;5.03;;;;;;;6.52;100.00;99193.09;4955700;28;20167;-79
2022/01/04 06:22:17;;;;;;;25.15;5.57;;;;;;;6.53;100.00;99183.31;4954917;28;20735;-79
2022/01/04 06:24:42;;;;;;;20.08;5.25;;;;;;;6.56;100.00;99183.19;4956572;29;20388;-79
2022/01/04 06:27:09;;;;;;;23.60;5.43;;;;;;;6.52;100.00;99182.47;4957427;28;20272;-80
2022/01/04 06:29:37;;;;;;;17.45;5.40;;;;;;;6.56;100.00;99175.19;4957408;28;20181;-80
2022/01/04 06:32:03;;;;;;;21.92;4.90;;;;;;;6.52;100.00;99169.16;4970286;28;20664;-79
2022/01/04 06:34:28;;;;;;;30.60;6.38;;;;;;;6.51;100.00;99174.53;4956736;29;20198;-78
2022/01/04 06:36:54;;;;;;;21.52;4.82;;;;;;;6.51;100.00;99159.44;4958463;28;20175;-79
2022/01/04 06:39:20;;;;;;;21.17;4.93;;;;;;;6.50;100.00;99154.22;4987812;28;20191;-78
2022/01/04 06:41:45;;;;;;;20.85;5.00;;;;;;;6.49;100.00;99155.97;4955548;29;20258;-78
2022/01/04 06:44:11;;;;;;;19.45;5.20;;;;;;;6.50;100.00;99140.91;4957104;29;20234;-80
2022/01/04 06:46:38;;;;;;;19.92;5.18;;;;;;;6.46;100.00;99141.97;4987885;28;20609;-80
2022/01/04 06:49:03;;;;;;;21.17;5.70;;;;;;;6.51;100.00;99142.63;4955480;29;20189;-79
2022/01/04 06:51:29;;;;;;;21.75;5.22;;;;;;;6.53;100.00;99149.56;4955260;28;20586;-79
2022/01/04 06:53:54;;;;;;;19.00;5.13;;;;;;;6.49;100.00;99144.47;4956500;28;20174;-79
2022/01/04 06:56:20;;;;;;;18.15;5.25;;;;;;;6.48;100.00;99140.97;4954497;28;20190;-79
2022/01/04 06:58:45;;;;;;;17.25;5.18;;;;;;;6.47;100.00;99146.34;4953351;28;20170;-78
2022/01/04 07:01:11;;;;;;;21.42;5.45;;;;;;;6.40;100.00;99157.28;4955260;28;20200;-78
2022/01/04 07:03:36;;;;;;;20.30;5.50;;;;;;;6.44;100.00;99151.84;4937299;29;20241;-78
2022/01/04 07:06:02;;;;;;;23.27;6.30;;;;;;;6.41;100.00;99158.16;4955031;28;20565;-79
2022/01/04 07:08:27;;;;;;;20.70;5.70;;;;;;;6.46;100.00;99156.13;4954825;29;20174;-80
2022/01/04 07:10:53;;;;;;;21.17;6.13;;;;;;;6.43;100.00;99150.09;4954991;28;20171;-79
2022/01/04 07:13:18;;;;;;;18.08;5.90;;;;;;;6.41;100.00;99155.50;4949502;28;20170;-79
2022/01/04 07:15:46;;;;;;;19.98;7.25;;;;;;;6.49;100.00;99140.03;4954568;28;20656;-80
2022/01/04 07:18:11;;;;;;;19.65;6.60;;;;;;;6.45;100.00;99149.13;4953738;28;20202;-81
2022/01/04 07:20:36;;;;;;;18.05;6.60;;;;;;;6.36;100.00;99161.06;4954191;28;20807;-78
2022/01/04 07:23:02;;;;;;;23.77;7.85;;;;;;;6.33;100.00;99155.88;4956989;28;20306;-79
2022/01/04 07:25:28;;;;;;;19.55;7.43;;;;;;;6.25;100.00;99149.19;4955269;29;20178;-80
2022/01/04 07:27:53;;;;;;;24.60;6.72;;;;;;;6.28;100.00;99143.75;4935707;29;20539;-79
2022/01/04 07:30:19;;;;;;;22.40;7.32;;;;;;;6.25;100.00;99138.53;4932298;29;20302;-77
2022/01/04 07:32:44;;;;;;;17.27;7.35;;;;;;;6.25;100.00;99126.09;4932046;29;20199;-80
2022/01/04 07:35:10;;;;;;;21.13;8.15;;;;;;;6.24;100.00;99132.38;4933436;29;20658;-79
2022/01/04 07:37:35;;;;;;;25.10;7.90;;;;;;;6.23;100.00;99132.44;4931807;29;20223;-78
2022/01/04 07:40:01;;;;;;;22.92;8.98;;;;;;;6.19;100.00;99131.75;4931729;29;20238;-78
2022/01/04 07:42:26;;;;;;;23.05;8.38;;;;;;;6.24;100.00;99139.50;4933260;29;20203;-78
2022/01/04 07:44:52;;;;;;;24.90;8.27;;;;;;;6.22;100.00;99136.03;4933249;29;20563;-78
2022/01/04 07:47:17;;;;;;;23.58;7.47;;;;;;;6.21;100.00;99137.84;4938494;29;20176;-81
2022/01/04 07:49:42;;;;;;;30.35;8.77;;;;;;;6.21;100.00;99127.22;4952328;28;20261;-81
2022/01/04 07:52:08;;;;;;;31.23;8.70;;;;;;;6.17;100.00;99112.34;4952133;28;20256;-79
2022/01/04 07:54:33;;;;;;;30.23;8.20;;;;;;;6.17;100.00;99130.94;4951088;29;20177;-79
2022/01/04 07:56:58;;;;;;;29.08;9.13;;;;;;;6.12;100.00;99130.28;4950826;28;20170;-78
2022/01/04 07:59:29;;;;;;;24.13;8.60;;;;;;;6.12;100.00;99117.88;4950818;29;20190;-79
2022/01/04 08:01:54;;;;;;;23.75;9.05;;;;;;;6.16;100.00;99114.09;4952687;29;20201;-77
2022/01/04 08:04:20;;;;;;;30.58;8.35;;;;;;;6.22;100.00;99109.44;4950801;29;20214;-77
2022/01/04 08:06:45;;;;;;;25.58;8.07;;;;;;;6.20;100.00;99096.22;4950370;28;20288;-77
2022/01/04 08:09:11;;;;;;;25.05;8.38;;;;;;;6.18;100.00;99096.28;4951989;28;20187;-79
2022/01/04 08:11:36;;;;;;;25.92;8.18;;;;;;;6.24;100.00;99086.31;4955107;28;20194;-78
2022/01/04 08:14:01;;;;;;;23.58;9.30;;;;;;;6.21;100.00;99082.00;4955699;28;20175;-78
2022/01/04 08:16:27;;;;;;;24.60;9.27;;;;;;;6.19;100.00;99091.84;4954781;28;20175;-80
2022/01/04 08:18:52;;;;;;;26.90;9.40;;;;;;;6.23;100.00;99087.22;4951300;28;20597;-78
2022/01/04 08:21:18;;;;;;;23.02;8.90;;;;;;;6.19;100.00;99083.88;4955976;28;20202;-77
2022/01/04 08:23:43;;;;;;;25.38;9.02;;;;;;;6.22;100.00;99099.66;4955783;28;20277;-77
2022/01/04 08:26:08;;;;;;;27.27;9.43;;;;;;;6.20;100.00;99096.22;4955184;28;20184;-78
2022/01/04 08:28:34;;;;;;;25.20;9.02;;;;;;;6.19;100.00;99106.00;4938817;29;20304;-78
2022/01/04 08:30:59;;;;;;;26.40;8.68;;;;;;;6.24;100.00;99084.50;4954593;28;20183;-78
2022/01/04 08:33:25;;;;;;;25.58;9.18;;;;;;;6.21;100.00;99086.44;4955753;28;20633;-78
2022/01/04 08:35:50;;;;;;;29.73;9.63;;;;;;;6.26;100.00;99085.28;4955628;28;20262;-78
2022/01/04 08:38:16;;;;;;;24.13;8.88;;;;;;;6.18;100.00;99090.97;4956086;28;20183;-78
2022/01/04 08:40:41;;;;;;;24.95;9.57;;;;;;;6.23;100.00;99080.13;4956817;28;20159;-77
2022/01/04 08:43:07;;;;;;;26.80;9.77;;;;;;;6.23;100.00;99069.50;4956657;28;20606;-78
2022/01/04 08:45:33;;;;;;;23.77;8.95;;;;;;;6.18;100.00;99061.72;4954501;29;20190;-78
2022/01/04 08:47:59;;;;;;;27.95;9.70;;;;;;;6.28;100.00;99063.94;4956185;29;20178;-78
2022/01/04 08:50:27;;;;;;;26.00;9.77;;;;;;;6.25;100.00;99050.78;4956311;28;20267;-78
2022/01/04 08:52:54;;;;;;;26.20;10.48;;;;;;;6.31;100.00;99059.31;4954240;28;20195;-78
2022/01/04 08:55:21;;;;;;;23.75;9.63;;;;;;;6.25;100.00;99061.44;4955382;28;20170;-77
2022/01/04 08:57:46;;;;;;;25.20;10.10;;;;;;;6.27;100.00;99064.88;4953990;29;20576;-78
2022/01/04 09:00:13;;;;;;;25.10;9.50;;;;;;;6.22;100.00;99057.13;4896055;28;20260;-77
2022/01/04 09:02:40;;;;;;;23.02;9.75;;;;;;;6.25;100.00;99046.31;4896692;29;20215;-78
2022/01/04 09:05:06;;;;;;;16.63;9.00;;;;;;;6.25;100.00;99041.00;4954762;29;20203;-77
2022/01/04 09:07:32;;;;;;;20.80;8.57;;;;;;;6.32;100.00;99026.50;4938956;29;20656;-78
2022/01/04 09:09:58;;;;;;;20.50;7.90;;;;;;;6.30;100.00;99036.34;4940814;29;20182;-77
2022/01/04 09:12:27;;;;;;;22.00;8.07;;;;;;;6.31;100.00;99034.53;4938610;29;20293;-77
2022/01/04 09:14:59;;;;;;;18.55;7.78;;;;;;;6.31;100.00;99018.56;4954066;29;20171;-78
2022/01/04 09:20:23;;;;;;;21.30;7.47;;;;;;;6.29;100.00;99012.47;4929655;28;20249;-77
2022/01/04 09:22:49;;;;;;;18.63;6.82;;;;;;;6.33;100.00;99006.91;4985837;28;20223;-76
2022/01/04 09:25:14;;;;;;;16.52;7.38;;;;;;;6.32;100.00;99004.31;4954064;28;20171;-77
2022/01/04 09:27:40;;;;;;;17.70;7.15;;;;;;;6.31;100.00;99003.47;4953465;29;20629;-76
2022/01/04 09:30:06;;;;;;;16.33;6.68;;;;;;;6.29;100.00;99013.31;4955152;28;20175;-76
2022/01/04 09:32:32;;;;;;;17.48;7.05;;;;;;;6.30;100.00;99009.75;4954920;28;20210;-76
2022/01/04 09:35:00;;;;;;;17.30;7.20;;;;;;;6.29;100.00;99000.03;4950959;28;20182;-76
2022/01/04 09:37:26;;;;;;;13.38;7.13;;;;;;;6.29;100.00;99009.81;4953927;28;20522;-76
2022/01/04 09:39:52;;;;;;;17.85;7.28;;;;;;;6.29;100.00;99005.34;4954201;28;20577;-76
2022/01/04 09:42:20;;;;;;;14.57;7.00;;;;;;;6.30;100.00;99007.09;4952917;28;20203;-77
2022/01/04 09:44:48;;;;;;;15.00;7.20;;;;;;;6.31;100.00;99010.59;4952464;29;20178;-76
2022/01/04 09:47:13;;;;;;;16.98;7.60;;;;;;;6.29;100.00;99010.66;4952152;29;20167;-77
2022/01/04 09:49:39;;;;;;;18.20;8.25;;;;;;;6.27;100.00;99004.56;4954191;28;20527;-78
2022/01/04 09:52:06;;;;;;;15.55;7.38;;;;;;;6.26;100.00;99005.50;4951670;28;20265;-78
2022/01/04 09:54:33;;;;;;;18.42;7.85;;;;;;;6.28;100.00;98997.47;4952914;28;20611;-78
2022/01/04 09:56:59;;;;;;;19.40;8.82;;;;;;;6.29;100.00;98994.72;4951306;29;20269;-78
2022/01/04 09:59:24;;;;;;;20.38;8.77;;;;;;;6.33;100.00;98992.75;4936747;29;20170;-77
2022/01/04 10:01:55;;;;;;;16.77;9.10;;;;;;;6.32;100.00;98996.34;4952751;28;20214;-77
2022/01/04 10:04:24;;;;;;;23.98;9.48;;;;;;;6.29;100.00;98994.72;4936369;29;20214;-76
2022/01/04 10:06:58;;;;;;;22.65;10.07;;;;;;;6.28;100.00;98993.00;4952343;29;20190;-76
2022/01/04 10:09:35;;;;;;;20.67;10.40;;;;;;;6.30;100.00;98990.28;4936715;29;20189;-76
2022/01/04 10:12:01;;;;;;;25.20;9.88;;;;;;;6.32;100.00;98988.38;4947120;28;20198;-77
2022/01/04 10:14:31;;;;;;;23.27;10.50;;;;;;;6.34;100.00;98986.50;4953943;28;20175;-76
2022/01/04 10:17:02;;;;;;;16.67;9.98;;;;;;;6.31;100.00;98989.31;4953506;28;20179;-76
2022/01/04 10:19:29;;;;;;;20.67;10.52;;;;;;;6.35;100.00;98990.91;4954192;28;20575;-77
2022/01/04 10:22:11;;;;;;;24.52;11.10;;;;;;;6.37;100.00;98989.03;4953853;28;20686;-77
2022/01/04 10:24:37;;;;;;;21.90;11.30;;;;;;;6.35;100.00;98973.13;4952456;29;20253;-76
2022/01/04 10:27:30;;;;;;;22.13;11.65;;;;;;;6.35;100.00;98982.91;4951739;29;20178;-79
2022/01/04 10:30:32;;;;;;;25.70;12.18;;;;;;;6.34;100.00;98986.50;4953753;28;20214;-78
2022/01/04 10:32:57;;;;;;;16.63;9.00;;;;;;;6.29;100.00;98988.53;4951199;28;20687;-77
2022/01/04 10:35:33;;;;;;;8.35;3.05;;;;;;;6.01;100.00;99005.00;4953833;28;20277;-77
2022/01/04 10:38:16;;;;;;;4.72;1.60;;;;;;;5.85;100.00;99002.19;4953686;28;20257;-76
2022/01/04 10:41:03;;;;;;;3.70;1.70;;;;;;;5.75;100.00;99002.63;4951850;28;20182;-76
2022/01/04 10:43:32;;;;;;;4.45;1.10;;;;;;;5.68;100.00;98995.03;4947945;28;20202;-77
2022/01/04 10:46:01;;;;;;;2.25;1.10;;;;;;;5.61;100.00;98985.63;4950426;28;20608;-78
2022/01/04 10:48:29;;;;;;;1.60;0.88;;;;;;;5.62;100.00;99005.94;4952755;29;20171;-78
2022/01/04 10:51:18;;;;;;;3.90;0.93;;;;;;;5.44;100.00;98999.69;4954103;28;20175;-78
2022/01/04 10:54:00;;;;;;;4.85;1.00;;;;;;;5.40;100.00;98998.13;4956365;28;20183;-78
2022/01/04 10:56:31;;;;;;;5.32;1.10;;;;;;;5.45;100.00;98999.63;4956011;28;20227;-79
2022/01/04 10:59:05;;;;;;;3.30;1.10;;;;;;;5.34;100.00;98994.81;4957842;28;20179;-79
2022/01/04 11:01:38;;;;;;;5.45;0.75;;;;;;;5.40;100.00;98998.13;4956291;28;20209;-79
2022/01/04 11:04:04;;;;;;;1.90;0.80;;;;;;;5.33;100.00;98998.38;4956216;29;20221;-79
2022/01/04 11:06:40;;;;;;;2.45;1.05;;;;;;;5.42;100.00;99002.41;4955727;29;20170;-79
2022/01/04 11:09:08;;;;;;;2.38;1.00;;;;;;;5.33;100.00;98995.72;4940516;29;20190;-79
2022/01/04 11:11:34;;;;;;;1.85;0.85;;;;;;;5.38;100.00;98998.22;4956740;28;20273;-79
2022/01/04 11:14:00;;;;;;;3.25;1.10;;;;;;;5.40;100.00;98996.34;4955813;29;20288;-79
2022/01/04 11:16:28;;;;;;;4.18;1.15;;;;;;;5.36;100.00;99002.72;4956758;28;20181;-79
2022/01/04 11:18:56;;;;;;;1.42;1.02;;;;;;;5.27;100.00;99019.94;4956776;29;20206;-80
2022/01/04 11:21:28;;;;;;;1.85;0.35;;;;;;;4.56;100.00;99027.50;4957293;28;20202;-79
2022/01/04 11:23:55;;;;;;;2.13;0.30;;;;;;;4.38;100.00;99023.84;4956103;29;20187;-79
2022/01/04 11:26:21;;;;;;;0.50;0.28;;;;;;;4.11;100.00;99039.97;4936866;28;20186;-77
2022/01/04 11:28:49;;;;;;;4.47;0.68;;;;;;;4.16;100.00;99036.25;4935740;29;20175;-78
2022/01/04 11:31:44;;;;;;;3.08;0.73;;;;;;;4.17;100.00;99032.66;4983556;28;20751;-78
2022/01/04 11:34:47;;;;;;;3.70;0.60;;;;;;;4.13;100.00;99046.06;4967537;28;20197;-77